Time;durP1;ratioP1;P1;durP2;ratioP2;P2;SDS_P1;SDS_P2;PMS_P1;PMS_P2;Temp;Humidity;BMP_temperature;BMP_pressure;BME280_temperature;BME280_humidity;BME280_pressure;Samples;Min_cycle;Max_cycle;Signal;HPM_P1;HPM_P2
2023/01/02 00:01:33;;;;;;;9.90;4.40;;;9.00;99.90;8.60;100620;;;;583685;246;24068;-76
2023/01/02 00:04:01;;;;;;;8.97;4.80;;;9.00;99.90;8.60;100625;;;;562058;251;24143;-76
2023/01/02 00:06:26;;;;;;;10.77;4.20;;;9.00;99.90;8.60;100616;;;;570462;251;24141;-77
2023/01/02 00:08:54;;;;;;;8.00;4.53;;;9.00;99.90;8.60;100628;;;;595609;241;24068;-77
2023/01/02 00:11:22;;;;;;;8.60;3.83;;;9.00;99.90;8.60;100623;;;;594479;241;24172;-78
2023/01/02 00:13:50;;;;;;;10.63;4.23;;;9.00;99.90;8.60;100627;;;;595008;241;24044;-77
2023/01/02 00:16:18;;;;;;;10.40;4.83;;;9.00;99.90;8.60;100624;;;;595157;241;24090;-77
2023/01/02 00:18:46;;;;;;;8.57;4.40;;;9.00;99.90;8.60;100622;;;;583070;246;24149;-78
2023/01/02 00:21:13;;;;;;;7.73;4.90;;;9.00;99.90;8.50;100614;;;;570427;251;24120;-77
2023/01/02 00:23:41;;;;;;;10.93;5.10;;;9.00;99.90;8.50;100623;;;;570209;252;24099;-78
2023/01/02 00:26:09;;;;;;;6.93;4.40;;;9.00;99.90;8.50;100624;;;;595291;241;24058;-79
2023/01/02 00:28:37;;;;;;;7.20;4.33;;;9.00;99.90;8.50;100622;;;;572450;246;24107;-77
2023/01/02 00:31:11;;;;;;;9.57;5.43;;;9.00;99.90;8.50;100631;;;;570056;252;24106;-77
2023/01/02 00:33:38;;;;;;;6.40;4.83;;;9.00;99.90;8.50;100633;;;;562232;251;24131;-78
2023/01/02 00:36:06;;;;;;;7.40;4.73;;;9.00;99.90;8.50;100628;;;;585893;242;24052;-77
2023/01/02 00:38:34;;;;;;;7.90;4.57;;;9.00;99.90;8.50;100625;;;;595395;241;24070;-77
2023/01/02 00:41:02;;;;;;;6.53;4.40;;;8.90;99.90;8.50;100642;;;;581526;246;24107;-76
2023/01/02 00:43:30;;;;;;;12.97;4.30;;;8.90;99.90;8.50;100625;;;;561781;252;24125;-78
2023/01/02 00:45:58;;;;;;;7.73;4.17;;;8.90;99.90;8.50;100627;;;;595354;241;24054;-78
2023/01/02 00:48:26;;;;;;;7.70;4.60;;;8.90;99.90;8.50;100623;;;;594847;242;24084;-77
2023/01/02 00:50:54;;;;;;;6.63;3.83;;;8.90;99.90;8.50;100608;;;;594708;242;24063;-77
2023/01/02 00:53:22;;;;;;;6.57;4.40;;;8.90;99.90;8.50;100607;;;;594630;242;24073;-78
2023/01/02 00:55:50;;;;;;;9.40;4.60;;;8.90;99.90;8.50;100607;;;;582811;246;24109;-77
2023/01/02 00:58:18;;;;;;;9.03;5.70;;;8.90;99.90;8.50;100623;;;;577361;246;46181;-77
2023/01/02 01:00:45;;;;;;;6.97;4.37;;;8.90;99.90;8.50;100617;;;;582378;246;24080;-78
2023/01/02 01:03:13;;;;;;;7.27;4.00;;;8.90;99.90;8.50;100617;;;;583586;245;24117;-78
2023/01/02 01:05:44;;;;;;;7.63;3.87;;;8.90;99.90;8.50;100613;;;;574598;246;24105;-78
2023/01/02 01:08:12;;;;;;;7.40;3.70;;;8.90;99.90;8.50;100607;;;;562352;251;24135;-78
2023/01/02 01:10:37;;;;;;;9.37;3.80;;;8.90;99.90;8.50;100609;;;;562269;250;24133;-79
2023/01/02 01:13:05;;;;;;;6.33;3.80;;;8.90;99.90;8.50;100615;;;;556492;252;24137;-78
2023/01/02 01:15:33;;;;;;;8.57;3.80;;;9.00;99.90;8.50;100605;;;;562501;251;24110;-76
2023/01/02 01:18:01;;;;;;;6.53;3.60;;;9.00;99.90;8.50;100607;;;;586661;241;24056;-75
2023/01/02 01:20:29;;;;;;;6.30;3.57;;;8.90;99.90;8.50;100604;;;;585993;241;24092;-76
2023/01/02 01:22:57;;;;;;;5.33;3.57;;;8.90;99.90;8.50;100609;;;;572841;246;24076;-76
2023/01/02 01:25:25;;;;;;;5.67;3.33;;;8.90;99.90;8.50;100622;;;;581683;246;24129;-77
2023/01/02 01:27:55;;;;;;;6.40;3.43;;;9.00;99.90;8.60;100622;;;;570914;251;24122;-78
2023/01/02 01:30:20;;;;;;;6.97;3.70;;;9.00;99.90;8.60;100613;;;;569905;252;24131;-78
2023/01/02 01:32:48;;;;;;;5.43;3.57;;;9.00;99.90;8.60;100615;;;;570972;251;24149;-74
2023/01/02 01:35:16;;;;;;;7.23;3.37;;;9.00;99.90;8.60;100613;;;;595522;241;24038;-75
2023/01/02 01:37:44;;;;;;;5.53;3.43;;;9.00;99.90;8.60;100613;;;;595400;241;24069;-76
2023/01/02 01:40:12;;;;;;;5.57;2.93;;;9.10;99.90;8.70;100612;;;;594856;242;24071;-77
2023/01/02 01:42:43;;;;;;;5.50;3.20;;;9.10;99.90;8.60;100604;;;;582868;246;24101;-76
2023/01/02 01:45:11;;;;;;;7.63;3.43;;;9.10;99.90;8.70;100606;;;;578777;246;24113;-76
2023/01/02 01:47:42;;;;;;;7.07;3.80;;;9.00;99.90;8.70;100593;;;;561087;252;24123;-76
2023/01/02 01:50:13;;;;;;;5.87;3.00;;;9.10;99.90;8.70;100583;;;;586233;242;24066;-75
2023/01/02 01:52:50;;;;;;;6.37;3.33;;;9.10;99.90;8.70;100592;;;;595128;241;24053;-76
2023/01/02 01:55:20;;;;;;;6.73;2.97;;;9.20;99.90;8.70;100597;;;;595619;241;24140;-77
2023/01/02 01:57:51;;;;;;;4.67;3.23;;;9.10;99.90;8.80;100606;;;;595226;241;24035;-77
2023/01/02 02:00:19;;;;;;;4.87;3.27;;;9.20;99.90;8.70;100607;;;;593710;242;24050;-75
2023/01/02 02:02:47;;;;;;;5.77;3.47;;;9.20;99.90;8.80;100600;;;;583194;246;25163;-77
2023/01/02 02:05:14;;;;;;;5.43;3.27;;;9.10;99.90;8.70;100608;;;;572900;246;24071;-77
2023/01/02 02:07:42;;;;;;;9.57;4.20;;;9.20;99.90;8.70;100615;;;;562046;251;24155;-78
2023/01/02 02:10:16;;;;;;;5.87;3.87;;;9.10;99.90;8.70;100618;;;;584991;242;24075;-77
2023/01/02 02:12:45;;;;;;;5.57;3.63;;;9.10;99.90;8.70;100608;;;;594894;242;24083;-75
2023/01/02 02:15:13;;;;;;;7.07;3.67;;;9.10;99.90;8.70;100611;;;;584281;244;24096;-78
2023/01/02 02:17:52;;;;;;;6.33;3.60;;;9.10;99.90;8.70;100614;;;;562492;250;24126;-75
2023/01/02 02:20:24;;;;;;;8.23;3.23;;;9.10;99.90;8.70;100616;;;;582062;241;24103;-78
2023/01/02 02:23:12;;;;;;;5.40;3.23;;;9.10;99.90;8.70;100608;;;;586212;241;24071;-76
2023/01/02 02:26:32;;;;;;;4.30;3.37;;;9.10;99.90;8.70;100600;;;;571765;246;24100;-77
2023/01/02 02:29:11;;;;;;;5.80;3.50;;;9.10;99.90;8.70;100595;;;;563013;252;24143;-75
2023/01/02 02:31:54;;;;;;;5.60;3.20;;;9.10;99.90;8.70;100602;;;;570912;251;24131;-77
2023/01/02 02:34:58;;;;;;;4.50;2.80;;;9.10;99.90;8.70;100600;;;;585943;240;24061;-75
2023/01/02 02:37:35;;;;;;;5.27;3.20;;;9.20;99.90;8.70;100600;;;;586500;241;24046;-74
2023/01/02 02:40:27;;;;;;;6.07;2.90;;;9.10;99.90;8.70;100597;;;;586618;241;24055;-78
2023/01/02 02:43:00;;;;;;;8.13;3.77;;;9.10;99.90;8.80;100596;;;;584890;241;24056;-75
2023/01/02 02:46:04;;;;;;;5.20;3.00;;;9.10;99.90;8.80;100599;;;;572000;246;24223;-74
2023/01/02 02:48:46;;;;;;;7.97;2.90;;;9.10;99.90;8.70;100577;;;;563233;252;24123;-75
2023/01/02 02:51:35;;;;;;;8.83;3.00;;;9.20;99.90;8.70;100574;;;;580244;246;24095;-75
2023/01/02 02:54:09;;;;;;;7.30;2.70;;;9.20;99.90;8.70;100571;;;;577254;245;24092;-76
2023/01/02 02:56:37;;;;;;;3.83;2.90;;;9.10;99.90;8.70;100568;;;;578833;244;24058;-75
2023/01/02 02:59:05;;;;;;;2.30;2.03;;;9.10;99.90;8.70;100577;;;;577858;241;24086;-76
2023/01/02 03:01:33;;;;;;;5.03;2.90;;;9.10;99.90;8.70;100577;;;;570548;252;24116;-77
2023/01/02 03:04:01;;;;;;;4.97;2.87;;;9.10;99.90;8.70;100578;;;;594672;241;24072;-78
2023/01/02 03:06:30;;;;;;;6.07;2.80;;;9.10;99.90;8.70;100575;;;;582948;246;24128;-77
2023/01/02 03:09:13;;;;;;;4.87;2.83;;;9.10;99.90;8.70;100572;;;;560945;251;24210;-78
2023/01/02 03:11:58;;;;;;;5.87;2.93;;;9.10;99.90;8.70;100574;;;;585585;241;24096;-77
2023/01/02 03:14:57;;;;;;;8.30;2.90;;;9.10;99.90;8.70;100562;;;;589222;241;24064;-78
2023/01/02 03:17:26;;;;;;;3.77;2.37;;;9.10;99.90;8.70;100572;;;;582137;245;24102;-78
2023/01/02 03:19:54;;;;;;;7.73;2.93;;;9.10;99.90;8.70;100567;;;;587391;242;24077;-77
2023/01/02 03:22:23;;;;;;;4.07;2.57;;;9.10;99.90;8.70;100568;;;;584800;241;24058;-78
2023/01/02 03:24:51;;;;;;;4.63;3.10;;;9.00;99.90;8.70;100567;;;;586033;239;24156;-77
2023/01/02 03:27:22;;;;;;;5.37;2.43;;;9.10;99.90;8.70;100569;;;;574056;246;24140;-78
2023/01/02 03:30:02;;;;;;;3.47;2.87;;;9.00;99.90;8.70;100567;;;;563699;250;24123;-79
2023/01/02 03:32:30;;;;;;;2.80;2.40;;;9.10;99.90;8.70;100559;;;;561265;251;24142;-79
2023/01/02 03:34:58;;;;;;;3.37;2.70;;;9.00;99.90;8.70;100549;;;;562715;251;24118;-78
2023/01/02 03:37:27;;;;;;;10.80;2.90;;;9.10;99.90;8.70;100542;;;;587029;241;24065;-79
2023/01/02 03:39:56;;;;;;;6.40;2.63;;;9.10;99.90;8.70;100547;;;;573110;246;24086;-77
2023/01/02 03:42:32;;;;;;;4.00;2.27;;;9.10;99.90;8.70;100545;;;;562111;251;24134;-76
2023/01/02 03:45:04;;;;;;;4.03;2.57;;;9.10;99.90;8.70;100554;;;;584283;241;24124;-77
2023/01/02 03:47:46;;;;;;;4.97;2.50;;;9.10;99.90;8.70;100546;;;;572128;246;24109;-78
2023/01/02 03:50:19;;;;;;;4.23;2.40;;;9.10;99.90;8.70;100536;;;;562681;252;24111;-77
2023/01/02 03:52:48;;;;;;;5.03;2.83;;;9.10;99.90;8.70;100526;;;;595822;241;24090;-78
2023/01/02 03:55:16;;;;;;;8.90;3.13;;;9.00;99.90;8.70;100518;;;;572350;246;24184;-77
2023/01/02 03:57:56;;;;;;;5.57;2.70;;;9.10;99.90;8.70;100514;;;;581141;246;24100;-78
2023/01/02 04:00:24;;;;;;;5.17;3.10;;;9.10;99.90;8.70;100510;;;;567825;249;24082;-77
2023/01/02 04:03:04;;;;;;;7.37;2.67;;;9.10;99.90;8.70;100503;;;;581779;246;24150;-77
2023/01/02 04:05:43;;;;;;;6.87;3.55;;;9.10;99.90;8.70;100509;;;;556962;251;35434;-78
2023/01/02 04:08:26;;;;;;;7.43;2.70;;;9.10;99.90;8.70;100500;;;;577867;244;24057;-77
2023/01/02 04:10:54;;;;;;;4.17;2.93;;;9.10;99.90;8.70;100502;;;;564854;251;24102;-76
2023/01/02 04:13:21;;;;;;;11.37;3.17;;;9.10;99.90;8.70;100496;;;;568878;248;24093;-78
2023/01/02 04:15:49;;;;;;;4.83;3.17;;;9.10;99.90;8.70;100491;;;;560969;252;24126;-78
2023/01/02 04:18:24;;;;;;;3.30;2.80;;;9.10;99.90;8.70;100499;;;;558395;250;24098;-78
2023/01/02 04:20:52;;;;;;;5.10;3.60;;;9.10;99.90;8.70;100492;;;;571349;248;24126;-79
2023/01/02 04:23:28;;;;;;;5.97;3.47;;;9.10;99.90;8.70;100495;;;;561592;252;24170;-79
2023/01/02 04:25:59;;;;;;;3.73;3.30;;;9.10;99.90;8.70;100491;;;;559632;253;24172;-78
2023/01/02 04:28:27;;;;;;;5.83;3.23;;;9.10;99.90;8.70;100488;;;;570020;251;24123;-78
2023/01/02 04:30:55;;;;;;;4.67;3.40;;;9.10;99.90;8.70;100483;;;;583685;242;24067;-75
2023/01/02 04:33:23;;;;;;;6.27;4.10;;;9.10;99.90;8.70;100479;;;;584651;242;24095;-77
2023/01/02 04:35:51;;;;;;;5.20;4.00;;;9.10;99.90;8.70;100476;;;;584484;242;24061;-77
2023/01/02 04:38:19;;;;;;;8.90;3.50;;;9.10;99.90;8.70;100479;;;;581740;245;24231;-76
2023/01/02 04:40:47;;;;;;;9.23;4.00;;;9.10;99.90;8.70;100484;;;;596046;240;24063;-78
2023/01/02 04:43:18;;;;;;;6.50;3.37;;;9.10;99.90;8.70;100490;;;;586864;240;24104;-76
2023/01/02 04:45:48;;;;;;;14.23;3.50;;;9.10;99.90;8.70;100479;;;;596004;241;24071;-76
2023/01/02 04:48:16;;;;;;;5.50;3.43;;;9.10;99.90;8.70;100471;;;;586661;241;24034;-76
2023/01/02 04:50:48;;;;;;;6.73;3.80;;;9.10;99.90;8.70;100470;;;;573146;246;24086;-77
2023/01/02 04:53:12;;;;;;;5.50;4.07;;;9.10;99.90;8.70;100465;;;;556579;252;24137;-76
2023/01/02 04:55:40;;;;;;;10.83;4.60;;;9.10;99.90;8.70;100470;;;;563655;252;24111;-77
2023/01/02 04:58:07;;;;;;;8.03;4.27;;;9.10;99.90;8.70;100452;;;;570364;251;24121;-76
2023/01/02 05:00:38;;;;;;;5.73;3.73;;;9.10;99.90;8.70;100437;;;;595510;241;24057;-76
2023/01/02 05:03:03;;;;;;;9.20;4.17;;;9.10;99.90;8.60;100443;;;;582630;246;24099;-78
2023/01/02 05:05:32;;;;;;;8.77;4.10;;;9.00;99.90;8.60;100437;;;;582190;246;24091;-78
2023/01/02 05:08:00;;;;;;;9.17;4.60;;;9.00;99.90;8.60;100440;;;;570995;252;24133;-78
2023/01/02 05:10:29;;;;;;;6.30;3.97;;;9.00;99.90;8.60;100431;;;;595564;241;24092;-78
2023/01/02 05:13:02;;;;;;;6.43;3.93;;;9.00;99.90;8.60;100434;;;;595367;241;24046;-78
2023/01/02 05:15:31;;;;;;;6.67;4.00;;;9.00;99.90;8.50;100429;;;;584988;242;24111;-77
2023/01/02 05:17:55;;;;;;;7.57;4.27;;;8.90;99.90;8.50;100422;;;;593229;242;24070;-76
2023/01/02 05:20:23;;;;;;;13.47;5.67;;;8.90;99.90;8.50;100422;;;;562640;251;24121;-76
2023/01/02 05:25:37;;;;;;;15.57;5.40;;;8.90;99.90;8.40;100429;;;;595594;241;24088;-76
2023/01/02 05:28:06;;;;;;;13.67;5.87;;;8.80;99.90;8.40;100416;;;;595182;241;24122;-76
2023/01/02 05:30:34;;;;;;;8.73;5.53;;;8.80;99.90;8.40;100406;;;;594883;242;24116;-77
2023/01/02 05:33:01;;;;;;;7.53;5.13;;;8.80;99.90;8.30;100412;;;;582989;246;24181;-78
2023/01/02 05:35:34;;;;;;;9.50;5.20;;;8.70;99.90;8.30;100396;;;;581888;246;24171;-77
2023/01/02 05:37:57;;;;;;;10.03;5.70;;;8.70;99.90;8.30;100376;;;;581168;246;24092;-76
2023/01/02 05:40:25;;;;;;;9.70;5.60;;;8.70;99.90;8.30;100387;;;;581917;246;25176;-78
2023/01/02 05:42:53;;;;;;;7.90;5.10;;;8.70;99.90;8.30;100384;;;;582080;246;24099;-76
2023/01/02 05:45:21;;;;;;;13.10;5.70;;;8.70;99.90;8.20;100378;;;;570632;251;24110;-76
2023/01/02 05:47:49;;;;;;;10.40;5.30;;;8.60;99.90;8.20;100380;;;;570563;251;24098;-76
2023/01/02 05:50:17;;;;;;;10.10;5.57;;;8.60;99.90;8.10;100373;;;;572113;250;24162;-75
2023/01/02 05:52:45;;;;;;;10.47;5.97;;;8.50;99.90;8.10;100374;;;;571501;251;24134;-75
2023/01/02 05:55:13;;;;;;;10.13;5.73;;;8.50;99.90;8.10;100381;;;;596459;241;24057;-76
2023/01/02 05:57:41;;;;;;;10.43;5.70;;;8.50;99.90;8.10;100367;;;;595872;241;25119;-76
2023/01/02 06:00:14;;;;;;;7.50;5.30;;;8.60;99.90;8.20;100366;;;;581472;246;24093;-77
2023/01/02 06:02:38;;;;;;;8.50;4.50;;;8.60;99.90;8.10;100357;;;;569540;251;24191;-76
2023/01/02 06:05:06;;;;;;;10.77;6.30;;;8.60;99.90;8.20;100359;;;;573358;246;24126;-76
2023/01/02 06:07:34;;;;;;;15.00;6.03;;;8.50;99.90;8.10;100350;;;;562515;251;24136;-76
2023/01/02 06:10:02;;;;;;;10.93;5.73;;;8.50;99.90;8.10;100349;;;;570810;251;24101;-76
2023/01/02 06:12:30;;;;;;;9.67;6.30;;;8.50;99.90;8.10;100344;;;;595641;241;24062;-77
2023/01/02 06:14:58;;;;;;;14.33;6.33;;;8.50;99.90;8.10;100346;;;;594447;241;24045;-76
2023/01/02 06:17:26;;;;;;;9.17;6.03;;;8.50;99.90;8.10;100350;;;;595232;241;24078;-75
2023/01/02 06:19:54;;;;;;;11.17;6.47;;;8.50;99.90;8.20;100357;;;;583257;246;24168;-75
2023/01/02 06:22:22;;;;;;;7.80;5.73;;;8.50;99.90;8.20;100349;;;;581655;246;24098;-77
2023/01/02 06:24:50;;;;;;;8.40;6.17;;;8.60;99.90;8.20;100351;;;;582182;246;24092;-77
2023/01/02 06:27:19;;;;;;;14.23;7.30;;;8.60;99.90;8.20;100345;;;;581886;246;24117;-77
2023/01/02 06:29:47;;;;;;;15.80;7.03;;;8.60;99.90;8.30;100337;;;;561979;252;24129;-76
2023/01/02 06:32:14;;;;;;;10.23;5.97;;;8.60;99.90;8.30;100335;;;;570577;251;24112;-76
2023/01/02 06:34:42;;;;;;;9.53;6.40;;;8.60;99.90;8.30;100333;;;;561862;251;24122;-77
2023/01/02 06:37:10;;;;;;;17.20;9.95;;;8.60;99.90;8.30;100323;;;;565250;251;35481;-77
2023/01/02 06:39:39;;;;;;;17.53;8.10;;;8.70;99.90;8.30;100324;;;;570570;251;24135;-76
2023/01/02 06:42:07;;;;;;;15.57;7.10;;;8.70;99.90;8.30;100323;;;;595341;241;24236;-77
2023/01/02 06:44:35;;;;;;;12.70;7.43;;;8.70;99.90;8.30;100320;;;;595253;241;24121;-77
2023/01/02 06:47:03;;;;;;;15.17;7.47;;;8.70;99.90;8.30;100318;;;;569596;248;24115;-77
2023/01/02 06:49:31;;;;;;;17.87;9.70;;;8.70;99.90;8.40;100319;;;;581335;246;24071;-77
2023/01/02 06:51:59;;;;;;;19.23;10.40;;;8.70;99.90;8.40;100313;;;;593767;242;24055;-77
2023/01/02 06:54:27;;;;;;;21.60;7.40;;;8.70;99.90;8.40;100310;;;;572835;246;24111;-76
2023/01/02 06:56:55;;;;;;;16.47;9.10;;;8.70;99.90;8.40;100309;;;;583512;246;24130;-76
2023/01/02 06:59:27;;;;;;;17.40;8.83;;;8.70;99.90;8.30;100298;;;;578169;249;24076;-76
2023/01/02 07:01:52;;;;;;;14.20;9.00;;;8.70;99.90;8.30;100312;;;;572913;250;24133;-77
2023/01/02 07:04:20;;;;;;;19.30;9.10;;;8.70;99.90;8.40;100300;;;;570927;251;24100;-76
2023/01/02 07:06:48;;;;;;;15.27;9.13;;;8.70;99.90;8.40;100285;;;;582747;246;24131;-77
2023/01/02 07:09:16;;;;;;;17.60;8.37;;;8.70;99.90;8.40;100287;;;;582776;246;24113;-76
2023/01/02 07:11:44;;;;;;;14.13;8.50;;;8.70;99.90;8.40;100286;;;;583001;246;24105;-77
2023/01/02 07:14:12;;;;;;;16.20;8.97;;;8.70;99.90;8.40;100293;;;;582888;246;24130;-77
2023/01/02 07:16:40;;;;;;;16.50;9.13;;;8.70;99.90;8.40;100285;;;;582846;246;24101;-77
2023/01/02 07:19:09;;;;;;;18.17;9.37;;;8.80;99.90;8.40;100280;;;;573952;246;24076;-77
2023/01/02 07:21:40;;;;;;;14.53;8.30;;;8.80;99.90;8.50;100284;;;;582214;246;24083;-77
2023/01/02 07:24:14;;;;;;;20.00;9.80;;;8.80;99.90;8.50;100265;;;;582226;247;24087;-75
2023/01/02 07:26:39;;;;;;;19.63;10.00;;;8.80;99.90;8.50;100259;;;;591193;240;24117;-75
2023/01/02 07:29:09;;;;;;;21.07;10.17;;;8.80;99.90;8.50;100262;;;;562619;251;24116;-75
2023/01/02 07:31:37;;;;;;;17.33;11.30;;;8.80;99.90;8.50;100249;;;;563337;250;24102;-76
2023/01/02 07:34:05;;;;;;;16.37;9.90;;;8.80;99.90;8.50;100246;;;;571245;251;24144;-76
2023/01/02 07:36:36;;;;;;;15.00;9.10;;;8.80;99.90;8.50;100249;;;;571075;252;24116;-77
2023/01/02 07:39:01;;;;;;;16.63;10.07;;;8.90;99.90;8.50;100239;;;;561646;251;24204;-76
2023/01/02 07:41:33;;;;;;;16.87;9.10;;;8.90;99.90;8.50;100245;;;;562207;252;24105;-76
2023/01/02 07:43:58;;;;;;;19.60;9.60;;;8.90;99.90;8.60;100235;;;;569863;252;24130;-77
2023/01/02 07:46:26;;;;;;;22.93;10.30;;;8.90;99.90;8.50;100242;;;;570480;251;24110;-77
2023/01/02 07:48:54;;;;;;;14.90;9.77;;;8.90;99.90;8.60;100250;;;;562286;252;24125;-77
2023/01/02 07:51:22;;;;;;;21.43;10.03;;;8.90;99.90;8.60;100240;;;;570537;252;24095;-78
2023/01/02 07:53:51;;;;;;;22.53;12.27;;;8.90;99.90;8.60;100236;;;;571068;252;24112;-76
2023/01/02 07:56:19;;;;;;;26.27;11.77;;;8.90;99.90;8.60;100240;;;;561825;252;24123;-76
2023/01/02 07:58:47;;;;;;;21.47;11.30;;;8.90;99.90;8.60;100240;;;;561970;251;24151;-77
2023/01/02 08:01:19;;;;;;;27.47;13.07;;;9.00;99.90;8.60;100233;;;;561962;251;24108;-77
2023/01/02 08:03:43;;;;;;;23.40;13.60;;;9.00;99.90;8.70;100233;;;;569539;252;24127;-77
2023/01/02 08:06:14;;;;;;;30.03;16.33;;;9.00;99.90;8.70;100225;;;;561978;252;24101;-78
2023/01/02 08:08:43;;;;;;;29.03;12.77;;;9.00;99.90;8.70;100223;;;;569764;252;24140;-77
2023/01/02 08:11:14;;;;;;;23.93;13.83;;;9.00;99.90;8.70;100222;;;;568202;249;24130;-77
2023/01/02 08:13:43;;;;;;;22.93;14.03;;;9.00;99.90;8.70;100216;;;;597224;240;24084;-76
2023/01/02 08:16:10;;;;;;;25.03;15.73;;;9.00;99.90;8.70;100219;;;;587029;240;24064;-76
2023/01/02 08:18:39;;;;;;;34.93;15.77;;;9.00;99.90;8.70;100217;;;;585892;240;24112;-77
2023/01/02 08:21:09;;;;;;;25.43;14.67;;;9.00;99.90;8.70;100225;;;;595424;241;24048;-77
2023/01/02 08:23:35;;;;;;;26.30;13.73;;;9.10;99.90;8.70;100212;;;;594538;241;25115;-76
2023/01/02 08:26:03;;;;;;;32.63;15.53;;;9.00;99.90;8.70;100226;;;;586433;240;24045;-77
2023/01/02 08:28:31;;;;;;;29.50;15.67;;;9.10;99.90;8.70;100221;;;;585791;241;24074;-78
2023/01/02 08:30:59;;;;;;;35.03;15.83;;;9.10;99.90;8.70;100221;;;;594557;241;24094;-78
2023/01/02 08:33:27;;;;;;;27.63;16.37;;;9.10;99.90;8.70;100216;;;;571942;247;24086;-77
2023/01/02 08:36:01;;;;;;;24.70;15.17;;;9.00;99.90;8.70;100219;;;;572386;247;24083;-76
2023/01/02 08:38:26;;;;;;;31.83;15.43;;;9.00;99.90;8.70;100210;;;;571992;247;24106;-77
2023/01/02 08:40:54;;;;;;;27.70;14.60;;;9.00;99.90;8.70;100202;;;;572775;247;24065;-77
2023/01/02 08:43:22;;;;;;;30.83;16.90;;;9.00;99.90;8.70;100207;;;;572577;247;24091;-77
2023/01/02 08:45:56;;;;;;;32.07;16.70;;;9.00;99.90;8.70;100209;;;;572928;247;24079;-77
2023/01/02 08:48:25;;;;;;;31.63;18.60;;;9.00;99.90;8.70;100204;;;;571733;247;24172;-76
2023/01/02 08:50:53;;;;;;;30.03;17.17;;;9.00;99.90;8.70;100198;;;;572023;247;24172;-78
2023/01/02 08:53:20;;;;;;;27.73;17.63;;;9.00;99.90;8.70;100196;;;;581131;246;24125;-77
2023/01/02 08:55:45;;;;;;;30.43;16.97;;;9.10;99.90;8.70;100190;;;;571871;247;24109;-76
2023/01/02 08:58:14;;;;;;;25.27;15.83;;;9.10;99.90;8.70;100185;;;;572590;246;24110;-77
2023/01/02 09:00:42;;;;;;;28.73;15.93;;;9.10;99.90;8.80;100176;;;;572911;246;24108;-77
2023/01/02 09:03:10;;;;;;;31.53;16.33;;;9.10;99.90;8.80;100182;;;;581675;246;24091;-76
2023/01/02 09:05:38;;;;;;;24.77;15.87;;;9.10;99.90;8.80;100185;;;;581695;247;24095;-78
2023/01/02 09:08:06;;;;;;;34.03;20.10;;;9.10;99.90;8.80;100174;;;;573171;247;24094;-77
2023/01/02 09:10:34;;;;;;;33.87;17.57;;;9.20;99.90;8.80;100180;;;;573076;247;24105;-77
2023/01/02 09:13:02;;;;;;;32.80;15.83;;;9.20;99.90;8.90;100176;;;;573018;247;24081;-77
2023/01/02 09:15:30;;;;;;;31.27;17.03;;;9.20;99.90;8.80;100172;;;;572092;247;24072;-77
2023/01/02 09:17:58;;;;;;;29.50;16.17;;;9.20;99.90;8.90;100169;;;;581280;247;24087;-77
2023/01/02 09:20:27;;;;;;;35.47;17.40;;;9.20;99.90;8.90;100170;;;;572705;247;24088;-77
2023/01/02 09:22:55;;;;;;;29.60;16.20;;;9.20;99.90;8.90;100170;;;;572743;244;24109;-76
2023/01/02 09:25:23;;;;;;;26.13;15.73;;;9.20;99.90;8.90;100160;;;;573674;246;24067;-76
2023/01/02 09:27:51;;;;;;;25.80;15.53;;;9.30;99.90;9.00;100168;;;;573691;246;24114;-77
2023/01/02 09:30:21;;;;;;;36.57;15.67;;;9.30;99.90;9.00;100150;;;;573140;246;24153;-77
2023/01/02 09:32:48;;;;;;;28.60;16.73;;;9.30;99.90;9.00;100152;;;;572532;246;24109;-77
2023/01/02 09:35:15;;;;;;;28.00;16.17;;;9.40;99.90;9.10;100143;;;;572709;246;24087;-78
2023/01/02 09:37:43;;;;;;;32.30;16.73;;;9.40;99.90;9.20;100146;;;;573287;246;24183;-77
2023/01/02 09:40:14;;;;;;;31.73;17.40;;;9.50;99.90;9.20;100128;;;;563013;251;24167;-78
2023/01/02 09:42:39;;;;;;;29.53;15.93;;;9.50;99.90;9.20;100139;;;;562020;251;24192;-77
2023/01/02 09:45:07;;;;;;;32.03;16.73;;;9.50;99.90;9.20;100136;;;;573414;246;24142;-76
2023/01/02 09:47:35;;;;;;;26.97;15.33;;;9.50;99.90;9.20;100131;;;;581312;247;24188;-77
2023/01/02 09:50:06;;;;;;;27.13;14.87;;;9.60;99.90;9.20;100132;;;;573529;246;24084;-77
2023/01/02 09:52:36;;;;;;;22.30;13.70;;;9.60;99.90;9.30;100111;;;;572575;246;24125;-78
2023/01/02 09:55:04;;;;;;;26.33;14.93;;;9.60;99.90;9.30;100108;;;;573540;247;24076;-77
2023/01/02 09:57:38;;;;;;;28.70;15.43;;;9.60;99.90;9.30;100109;;;;572672;247;24096;-77
2023/01/02 10:00:14;;;;;;;23.93;14.50;;;9.60;99.90;9.30;100103;;;;573363;246;24100;-77
2023/01/02 10:02:59;;;;;;;24.10;14.60;;;9.60;99.90;9.30;100099;;;;564802;251;24124;-78
2023/01/02 10:05:28;;;;;;;25.50;14.97;;;9.70;99.90;9.40;100112;;;;583934;241;24065;-78
2023/01/02 10:08:23;;;;;;;22.10;13.73;;;9.70;99.90;9.40;100114;;;;572211;246;24136;-78
2023/01/02 10:11:18;;;;;;;21.47;13.33;;;9.70;99.90;9.40;100095;;;;564092;250;24146;-78
2023/01/02 10:13:58;;;;;;;26.97;13.03;;;9.70;99.90;9.40;100091;;;;579335;247;24108;-78
2023/01/02 10:16:30;;;;;;;25.80;15.98;;;9.80;99.90;9.50;100087;;;;578560;246;35410;-78
2023/01/02 10:18:57;;;;;;;23.47;13.20;;;9.80;99.90;9.50;100088;;;;570668;251;24173;-78
2023/01/02 10:21:25;;;;;;;22.43;12.90;;;9.90;99.90;9.50;100094;;;;564303;251;24142;-78
2023/01/02 10:23:56;;;;;;;19.27;12.50;;;9.90;99.90;9.50;100096;;;;570867;251;24160;-78
2023/01/02 10:26:25;;;;;;;21.47;13.30;;;10.00;99.90;9.60;100085;;;;586316;241;24057;-78
2023/01/02 10:29:08;;;;;;;23.10;11.97;;;10.10;99.90;9.70;100081;;;;578066;246;24098;-78
2023/01/02 10:31:51;;;;;;;22.20;12.53;;;10.10;99.90;9.70;100069;;;;560533;251;24119;-78
2023/01/02 10:34:19;;;;;;;23.17;12.07;;;10.10;99.90;9.80;100067;;;;568839;247;24101;-78
2023/01/02 10:36:47;;;;;;;27.80;11.73;;;10.20;99.90;9.90;100066;;;;583411;245;24122;-78
2023/01/02 10:39:24;;;;;;;24.77;11.33;;;10.30;99.90;10.00;100059;;;;575088;245;24096;-80
2023/01/02 10:41:49;;;;;;;22.23;11.10;;;10.40;99.90;10.10;100058;;;;563706;250;24127;-77
2023/01/02 10:44:28;;;;;;;17.07;11.03;;;10.50;99.90;10.20;100057;;;;563070;252;24135;-77
2023/01/02 10:46:58;;;;;;;23.90;11.37;;;10.60;99.90;10.20;100053;;;;586041;241;24056;-77
2023/01/02 10:49:24;;;;;;;18.83;11.30;;;10.60;99.90;10.30;100055;;;;563325;250;24116;-78
2023/01/02 10:51:51;;;;;;;21.63;11.67;;;10.70;99.90;10.30;100048;;;;584174;246;24161;-78
2023/01/02 10:54:19;;;;;;;23.23;14.60;;;10.70;99.90;10.30;100044;;;;569015;245;35317;-78
2023/01/02 10:56:47;;;;;;;24.13;12.23;;;10.80;99.90;10.40;100047;;;;585715;241;24107;-78
2023/01/02 10:59:21;;;;;;;22.47;12.00;;;10.80;99.90;10.40;100035;;;;586027;241;24182;-78
2023/01/02 11:01:58;;;;;;;17.50;10.27;;;10.90;99.90;10.50;100042;;;;585456;241;24080;-77
2023/01/02 11:04:26;;;;;;;18.17;11.00;;;10.90;99.90;10.50;100043;;;;586109;241;24136;-78
2023/01/02 11:06:57;;;;;;;16.87;10.13;;;10.90;99.90;10.50;100044;;;;585419;241;24090;-79
2023/01/02 11:09:31;;;;;;;17.33;10.43;;;10.90;99.90;10.60;100047;;;;567573;250;24157;-77
2023/01/02 11:12:09;;;;;;;18.53;10.37;;;11.00;99.90;10.70;100055;;;;569510;250;24210;-77
2023/01/02 11:14:37;;;;;;;17.10;10.07;;;11.00;99.90;10.70;100030;;;;571389;251;24181;-78
2023/01/02 11:17:19;;;;;;;20.30;9.97;;;11.10;99.90;10.80;100041;;;;574574;245;24079;-77
2023/01/02 11:19:50;;;;;;;21.23;10.17;;;11.10;99.90;10.90;100043;;;;585903;241;24094;-78
2023/01/02 11:22:21;;;;;;;17.03;9.90;;;11.20;99.90;11.00;100035;;;;585002;242;24070;-77
2023/01/02 11:25:00;;;;;;;18.67;10.50;;;11.30;99.90;11.10;100037;;;;581489;246;24075;-77
2023/01/02 11:27:28;;;;;;;14.10;9.97;;;11.40;99.90;11.20;100041;;;;570042;250;24133;-78
2023/01/02 11:29:59;;;;;;;17.17;10.43;;;11.50;99.90;11.30;100045;;;;584509;241;24083;-77
2023/01/02 11:32:30;;;;;;;15.30;9.63;;;11.60;99.90;11.30;100037;;;;585268;242;24066;-78
2023/01/02 11:34:57;;;;;;;19.63;9.97;;;11.70;99.90;11.30;100038;;;;585268;241;24078;-78